sensor_id;sensor_type;location;lat;lon;timestamp;temperature;humidity
74792;SHT30;63319;46.046;17.802;2023-02-14T00:02:43;20.43;39.64
74792;SHT30;63319;46.046;17.802;2023-02-14T00:05:46;20.44;39.70
74792;SHT30;63319;46.046;17.802;2023-02-14T00:08:49;20.43;39.86
74792;SHT30;63319;46.046;17.802;2023-02-14T00:11:54;20.44;39.86
74792;SHT30;63319;46.046;17.802;2023-02-14T00:14:57;20.40;39.77
74792;SHT30;63319;46.046;17.802;2023-02-14T00:18:18;20.44;39.69
74792;SHT30;63319;46.046;17.802;2023-02-14T00:21:21;20.44;39.39
74792;SHT30;63319;46.046;17.802;2023-02-14T00:24:25;20.40;39.96
74792;SHT30;63319;46.046;17.802;2023-02-14T00:27:28;20.40;39.56
74792;SHT30;63319;46.046;17.802;2023-02-14T00:30:30;20.40;39.52
74792;SHT30;63319;46.046;17.802;2023-02-14T00:33:33;20.40;39.56
74792;SHT30;63319;46.046;17.802;2023-02-14T00:36:37;20.40;39.79
74792;SHT30;63319;46.046;17.802;2023-02-14T00:39:40;20.40;39.40
74792;SHT30;63319;46.046;17.802;2023-02-14T00:42:43;20.41;39.48
74792;SHT30;63319;46.046;17.802;2023-02-14T00:45:46;20.43;39.57
74792;SHT30;63319;46.046;17.802;2023-02-14T00:48:49;20.40;39.44
74792;SHT30;63319;46.046;17.802;2023-02-14T00:51:52;20.39;39.47
74792;SHT30;63319;46.046;17.802;2023-02-14T00:54:55;20.40;39.89
74792;SHT30;63319;46.046;17.802;2023-02-14T00:57:59;20.39;39.77
74792;SHT30;63319;46.046;17.802;2023-02-14T01:01:02;20.39;39.59
74792;SHT30;63319;46.046;17.802;2023-02-14T01:04:05;20.39;39.21
74792;SHT30;63319;46.046;17.802;2023-02-14T01:07:09;20.37;39.44
74792;SHT30;63319;46.046;17.802;2023-02-14T01:10:11;20.39;39.64
74792;SHT30;63319;46.046;17.802;2023-02-14T01:13:15;20.36;39.64
74792;SHT30;63319;46.046;17.802;2023-02-14T01:16:26;20.34;39.34
74792;SHT30;63319;46.046;17.802;2023-02-14T01:19:30;20.34;39.45
74792;SHT30;63319;46.046;17.802;2023-02-14T01:22:40;20.36;39.27
74792;SHT30;63319;46.046;17.802;2023-02-14T01:25:43;20.34;39.58
74792;SHT30;63319;46.046;17.802;2023-02-14T01:28:47;20.34;39.90
74792;SHT30;63319;46.046;17.802;2023-02-14T01:31:49;20.33;39.17
74792;SHT30;63319;46.046;17.802;2023-02-14T01:34:53;20.39;39.57
74792;SHT30;63319;46.046;17.802;2023-02-14T01:37:55;20.34;39.59
74792;SHT30;63319;46.046;17.802;2023-02-14T01:40:58;20.34;39.54
74792;SHT30;63319;46.046;17.802;2023-02-14T01:44:53;20.33;39.63
74792;SHT30;63319;46.046;17.802;2023-02-14T01:47:32;20.29;39.31
74792;SHT30;63319;46.046;17.802;2023-02-14T01:50:40;20.30;39.62
74792;SHT30;63319;46.046;17.802;2023-02-14T01:53:45;20.31;39.34
74792;SHT30;63319;46.046;17.802;2023-02-14T01:56:55;20.31;39.32
74792;SHT30;63319;46.046;17.802;2023-02-14T01:59:59;20.30;39.55
74792;SHT30;63319;46.046;17.802;2023-02-14T02:03:36;20.30;39.66
74792;SHT30;63319;46.046;17.802;2023-02-14T02:06:45;20.29;39.40
74792;SHT30;63319;46.046;17.802;2023-02-14T02:09:57;20.26;39.78
74792;SHT30;63319;46.046;17.802;2023-02-14T02:13:06;20.27;39.23
74792;SHT30;63319;46.046;17.802;2023-02-14T02:16:35;20.30;39.22
74792;SHT30;63319;46.046;17.802;2023-02-14T02:26:55;20.26;39.73
74792;SHT30;63319;46.046;17.802;2023-02-14T02:37:07;20.23;39.51
74792;SHT30;63319;46.046;17.802;2023-02-14T02:40:20;20.24;39.47
74792;SHT30;63319;46.046;17.802;2023-02-14T02:47:05;20.19;39.37
74792;SHT30;63319;46.046;17.802;2023-02-14T02:50:28;20.20;39.58
74792;SHT30;63319;46.046;17.802;2023-02-14T02:54:04;20.20;39.36
74792;SHT30;63319;46.046;17.802;2023-02-14T02:57:16;20.17;39.67
74792;SHT30;63319;46.046;17.802;2023-02-14T03:00:22;20.19;39.37
74792;SHT30;63319;46.046;17.802;2023-02-14T03:03:27;20.19;39.44
74792;SHT30;63319;46.046;17.802;2023-02-14T03:06:51;20.20;39.34
74792;SHT30;63319;46.046;17.802;2023-02-14T03:09:59;20.16;39.38
74792;SHT30;63319;46.046;17.802;2023-02-14T03:19:28;20.14;39.39
74792;SHT30;63319;46.046;17.802;2023-02-14T03:23:08;20.13;39.29
74792;SHT30;63319;46.046;17.802;2023-02-14T03:26:21;20.14;39.43
74792;SHT30;63319;46.046;17.802;2023-02-14T03:32:45;20.17;39.57
74792;SHT30;63319;46.046;17.802;2023-02-14T03:39:26;20.14;39.57
74792;SHT30;63319;46.046;17.802;2023-02-14T03:42:34;20.16;39.37
74792;SHT30;63319;46.046;17.802;2023-02-14T03:45:42;20.12;39.50
74792;SHT30;63319;46.046;17.802;2023-02-14T03:48:47;20.10;39.36
74792;SHT30;63319;46.046;17.802;2023-02-14T03:51:53;20.13;39.47
74792;SHT30;63319;46.046;17.802;2023-02-14T03:54:59;20.12;39.00
74792;SHT30;63319;46.046;17.802;2023-02-14T03:58:10;20.13;39.46
74792;SHT30;63319;46.046;17.802;2023-02-14T04:01:29;20.10;39.13
74792;SHT30;63319;46.046;17.802;2023-02-14T04:04:37;20.13;39.48
74792;SHT30;63319;46.046;17.802;2023-02-14T04:07:48;20.13;39.59
74792;SHT30;63319;46.046;17.802;2023-02-14T04:10:52;20.13;39.41
74792;SHT30;63319;46.046;17.802;2023-02-14T04:13:55;20.12;38.90
74792;SHT30;63319;46.046;17.802;2023-02-14T04:16:58;20.09;39.43
74792;SHT30;63319;46.046;17.802;2023-02-14T04:20:20;20.06;39.50
74792;SHT30;63319;46.046;17.802;2023-02-14T04:23:23;20.08;39.04
74792;SHT30;63319;46.046;17.802;2023-02-14T04:26:26;20.08;39.30
74792;SHT30;63319;46.046;17.802;2023-02-14T04:29:28;20.05;39.21
74792;SHT30;63319;46.046;17.802;2023-02-14T04:32:31;20.08;39.05
74792;SHT30;63319;46.046;17.802;2023-02-14T04:35:34;20.06;39.40
74792;SHT30;63319;46.046;17.802;2023-02-14T04:38:37;20.06;39.63
74792;SHT30;63319;46.046;17.802;2023-02-14T04:41:42;20.09;39.68
74792;SHT30;63319;46.046;17.802;2023-02-14T04:44:45;20.06;38.97
74792;SHT30;63319;46.046;17.802;2023-02-14T04:47:48;20.08;39.48
74792;SHT30;63319;46.046;17.802;2023-02-14T04:50:52;20.06;39.36
74792;SHT30;63319;46.046;17.802;2023-02-14T04:53:56;20.06;39.43
74792;SHT30;63319;46.046;17.802;2023-02-14T04:56:59;20.06;38.96
74792;SHT30;63319;46.046;17.802;2023-02-14T05:00:03;20.06;38.59
74792;SHT30;63319;46.046;17.802;2023-02-14T05:03:06;20.03;39.36
74792;SHT30;63319;46.046;17.802;2023-02-14T05:06:08;20.06;39.25
74792;SHT30;63319;46.046;17.802;2023-02-14T05:09:11;20.05;39.28
74792;SHT30;63319;46.046;17.802;2023-02-14T05:12:15;20.06;39.11
74792;SHT30;63319;46.046;17.802;2023-02-14T05:15:18;20.03;39.15
74792;SHT30;63319;46.046;17.802;2023-02-14T05:18:21;20.02;38.82
74792;SHT30;63319;46.046;17.802;2023-02-14T05:21:27;20.03;39.45
74792;SHT30;63319;46.046;17.802;2023-02-14T05:24:34;20.06;39.24
74792;SHT30;63319;46.046;17.802;2023-02-14T05:27:37;20.03;39.32
74792;SHT30;63319;46.046;17.802;2023-02-14T05:30:40;20.05;39.32
74792;SHT30;63319;46.046;17.802;2023-02-14T05:33:43;20.02;39.61
74792;SHT30;63319;46.046;17.802;2023-02-14T05:36:46;20.05;38.92
74792;SHT30;63319;46.046;17.802;2023-02-14T05:39:49;20.03;39.37
74792;SHT30;63319;46.046;17.802;2023-02-14T05:42:53;20.08;39.27
74792;SHT30;63319;46.046;17.802;2023-02-14T05:45:57;20.05;39.04
74792;SHT30;63319;46.046;17.802;2023-02-14T05:49:01;20.06;39.63
74792;SHT30;63319;46.046;17.802;2023-02-14T05:52:04;20.06;39.19
74792;SHT30;63319;46.046;17.802;2023-02-14T05:55:08;20.06;39.07
74792;SHT30;63319;46.046;17.802;2023-02-14T05:58:11;20.09;39.29
74792;SHT30;63319;46.046;17.802;2023-02-14T06:01:14;20.09;39.39
74792;SHT30;63319;46.046;17.802;2023-02-14T06:04:16;20.05;39.68
74792;SHT30;63319;46.046;17.802;2023-02-14T06:07:19;20.09;39.46
74792;SHT30;63319;46.046;17.802;2023-02-14T06:10:24;20.10;39.24
74792;SHT30;63319;46.046;17.802;2023-02-14T06:13:28;20.06;39.69
74792;SHT30;63319;46.046;17.802;2023-02-14T06:16:31;20.09;39.15
74792;SHT30;63319;46.046;17.802;2023-02-14T06:19:34;20.08;39.70
74792;SHT30;63319;46.046;17.802;2023-02-14T06:22:37;20.06;39.09
74792;SHT30;63319;46.046;17.802;2023-02-14T06:25:40;20.08;39.67
74792;SHT30;63319;46.046;17.802;2023-02-14T06:28:43;20.09;39.81
74792;SHT30;63319;46.046;17.802;2023-02-14T06:31:46;20.09;39.49
74792;SHT30;63319;46.046;17.802;2023-02-14T06:34:49;20.12;39.16
74792;SHT30;63319;46.046;17.802;2023-02-14T06:37:52;20.12;39.47
74792;SHT30;63319;46.046;17.802;2023-02-14T06:41:04;20.14;39.85
74792;SHT30;63319;46.046;17.802;2023-02-14T06:44:08;20.14;39.95
74792;SHT30;63319;46.046;17.802;2023-02-14T06:47:11;20.12;39.36
74792;SHT30;63319;46.046;17.802;2023-02-14T06:50:15;20.13;39.87
74792;SHT30;63319;46.046;17.802;2023-02-14T06:53:18;20.19;39.92
74792;SHT30;63319;46.046;17.802;2023-02-14T06:56:21;20.17;39.84
74792;SHT30;63319;46.046;17.802;2023-02-14T06:59:25;20.19;39.90
74792;SHT30;63319;46.046;17.802;2023-02-14T07:02:29;20.21;39.68
74792;SHT30;63319;46.046;17.802;2023-02-14T07:05:33;20.24;39.57
74792;SHT30;63319;46.046;17.802;2023-02-14T07:08:36;20.23;40.04
74792;SHT30;63319;46.046;17.802;2023-02-14T07:11:39;20.21;39.70
74792;SHT30;63319;46.046;17.802;2023-02-14T07:14:42;20.26;39.53
74792;SHT30;63319;46.046;17.802;2023-02-14T07:17:45;20.29;40.21
74792;SHT30;63319;46.046;17.802;2023-02-14T07:20:51;20.36;40.37
74792;SHT30;63319;46.046;17.802;2023-02-14T07:23:54;20.39;40.89
74792;SHT30;63319;46.046;17.802;2023-02-14T07:26:58;20.41;41.16
74792;SHT30;63319;46.046;17.802;2023-02-14T07:30:13;20.41;40.98
74792;SHT30;63319;46.046;17.802;2023-02-14T07:33:18;20.44;41.78
74792;SHT30;63319;46.046;17.802;2023-02-14T07:36:21;20.48;42.25
74792;SHT30;63319;46.046;17.802;2023-02-14T07:39:24;20.48;42.76
74792;SHT30;63319;46.046;17.802;2023-02-14T07:42:29;20.50;42.71
74792;SHT30;63319;46.046;17.802;2023-02-14T07:45:31;20.48;42.93
74792;SHT30;63319;46.046;17.802;2023-02-14T07:48:34;20.51;42.82
74792;SHT30;63319;46.046;17.802;2023-02-14T07:51:38;20.54;42.32
74792;SHT30;63319;46.046;17.802;2023-02-14T07:54:41;20.57;42.85
74792;SHT30;63319;46.046;17.802;2023-02-14T07:57:47;20.58;41.52
74792;SHT30;63319;46.046;17.802;2023-02-14T08:00:51;20.54;40.84
74792;SHT30;63319;46.046;17.802;2023-02-14T08:03:58;20.55;40.92
74792;SHT30;63319;46.046;17.802;2023-02-14T08:07:01;20.58;40.57
74792;SHT30;63319;46.046;17.802;2023-02-14T08:10:04;20.55;40.15
74792;SHT30;63319;46.046;17.802;2023-02-14T08:13:07;20.55;40.08
74792;SHT30;63319;46.046;17.802;2023-02-14T08:16:10;20.58;39.96
74792;SHT30;63319;46.046;17.802;2023-02-14T08:19:14;20.57;39.89
74792;SHT30;63319;46.046;17.802;2023-02-14T08:22:17;20.58;39.46
74792;SHT30;63319;46.046;17.802;2023-02-14T08:25:20;20.58;39.39
74792;SHT30;63319;46.046;17.802;2023-02-14T08:28:24;20.60;39.32
74792;SHT30;63319;46.046;17.802;2023-02-14T08:31:31;20.60;38.85
74792;SHT30;63319;46.046;17.802;2023-02-14T08:34:37;20.60;38.56
74792;SHT30;63319;46.046;17.802;2023-02-14T08:37:40;20.63;38.48
74792;SHT30;63319;46.046;17.802;2023-02-14T08:40:43;20.64;38.48
74792;SHT30;63319;46.046;17.802;2023-02-14T08:43:46;20.65;38.40
74792;SHT30;63319;46.046;17.802;2023-02-14T08:46:49;20.64;38.76
74792;SHT30;63319;46.046;17.802;2023-02-14T08:49:52;20.64;38.44
74792;SHT30;63319;46.046;17.802;2023-02-14T08:52:55;20.65;38.76
74792;SHT30;63319;46.046;17.802;2023-02-14T08:56:02;20.69;38.61
74792;SHT30;63319;46.046;17.802;2023-02-14T08:59:05;20.68;38.50
74792;SHT30;63319;46.046;17.802;2023-02-14T09:02:13;20.68;38.23
74792;SHT30;63319;46.046;17.802;2023-02-14T09:05:18;20.72;38.02
74792;SHT30;63319;46.046;17.802;2023-02-14T09:08:22;20.77;38.25
74792;SHT30;63319;46.046;17.802;2023-02-14T09:11:25;20.78;37.97
74792;SHT30;63319;46.046;17.802;2023-02-14T09:14:28;20.81;38.30
74792;SHT30;63319;46.046;17.802;2023-02-14T09:17:34;20.79;38.36
74792;SHT30;63319;46.046;17.802;2023-02-14T09:20:36;20.81;38.06
74792;SHT30;63319;46.046;17.802;2023-02-14T09:23:39;20.84;38.44
74792;SHT30;63319;46.046;17.802;2023-02-14T09:26:42;20.84;38.09
74792;SHT30;63319;46.046;17.802;2023-02-14T09:29:45;20.84;38.42
74792;SHT30;63319;46.046;17.802;2023-02-14T09:32:50;20.87;38.55
74792;SHT30;63319;46.046;17.802;2023-02-14T09:35:53;20.85;38.39
74792;SHT30;63319;46.046;17.802;2023-02-14T09:39:15;20.89;38.80
74792;SHT30;63319;46.046;17.802;2023-02-14T09:45:39;20.87;39.01
74792;SHT30;63319;46.046;17.802;2023-02-14T09:48:45;19.44;39.26
74792;SHT30;63319;46.046;17.802;2023-02-14T09:51:51;18.82;40.23
74792;SHT30;63319;46.046;17.802;2023-02-14T09:54:59;18.53;38.14
74792;SHT30;63319;46.046;17.802;2023-02-14T10:01:51;17.54;39.69
74792;SHT30;63319;46.046;17.802;2023-02-14T10:05:20;18.02;41.88
74792;SHT30;63319;46.046;17.802;2023-02-14T10:12:01;17.87;41.60
74792;SHT30;63319;46.046;17.802;2023-02-14T10:15:13;18.04;42.90
74792;SHT30;63319;46.046;17.802;2023-02-14T10:19:06;18.01;43.28
74792;SHT30;63319;46.046;17.802;2023-02-14T10:22:15;18.10;43.41
74792;SHT30;63319;46.046;17.802;2023-02-14T10:25:43;18.31;44.25
74792;SHT30;63319;46.046;17.802;2023-02-14T10:28:48;18.18;45.25
74792;SHT30;63319;46.046;17.802;2023-02-14T10:32:01;18.44;42.88
74792;SHT30;63319;46.046;17.802;2023-02-14T10:35:26;18.28;41.80
74792;SHT30;63319;46.046;17.802;2023-02-14T10:38:53;18.12;44.98
74792;SHT30;63319;46.046;17.802;2023-02-14T10:51:55;18.05;42.74
74792;SHT30;63319;46.046;17.802;2023-02-14T10:55:14;18.04;45.78
74792;SHT30;63319;46.046;17.802;2023-02-14T10:58:37;18.11;43.62
74792;SHT30;63319;46.046;17.802;2023-02-14T11:01:41;18.17;42.83
74792;SHT30;63319;46.046;17.802;2023-02-14T11:04:45;17.97;41.78
74792;SHT30;63319;46.046;17.802;2023-02-14T11:07:49;17.90;42.68
74792;SHT30;63319;46.046;17.802;2023-02-14T11:11:02;18.10;43.12
74792;SHT30;63319;46.046;17.802;2023-02-14T11:14:30;18.27;46.01
74792;SHT30;63319;46.046;17.802;2023-02-14T11:17:34;18.18;43.51
74792;SHT30;63319;46.046;17.802;2023-02-14T11:20:39;18.04;44.48
74792;SHT30;63319;46.046;17.802;2023-02-14T11:23:46;18.34;44.81
74792;SHT30;63319;46.046;17.802;2023-02-14T11:27:02;18.28;41.99
74792;SHT30;63319;46.046;17.802;2023-02-14T11:30:35;18.38;42.31
74792;SHT30;63319;46.046;17.802;2023-02-14T11:33:43;18.05;45.12
74792;SHT30;63319;46.046;17.802;2023-02-14T11:36:46;17.25;44.79
74792;SHT30;63319;46.046;17.802;2023-02-14T11:39:50;17.42;42.07
74792;SHT30;63319;46.046;17.802;2023-02-14T11:42:54;17.40;43.03
74792;SHT30;63319;46.046;17.802;2023-02-14T11:49:33;18.15;43.30
74792;SHT30;63319;46.046;17.802;2023-02-14T11:52:50;18.10;41.26
74792;SHT30;63319;46.046;17.802;2023-02-14T11:55:57;18.10;43.76
74792;SHT30;63319;46.046;17.802;2023-02-14T11:59:03;18.08;41.25
74792;SHT30;63319;46.046;17.802;2023-02-14T12:05:27;17.66;41.22
74792;SHT30;63319;46.046;17.802;2023-02-14T12:08:32;18.15;45.03
74792;SHT30;63319;46.046;17.802;2023-02-14T12:11:34;17.98;44.16
74792;SHT30;63319;46.046;17.802;2023-02-14T12:14:42;17.86;42.32
74792;SHT30;63319;46.046;17.802;2023-02-14T12:17:45;18.17;46.09
74792;SHT30;63319;46.046;17.802;2023-02-14T12:24:15;18.29;44.50
74792;SHT30;63319;46.046;17.802;2023-02-14T12:27:44;17.96;41.52
74792;SHT30;63319;46.046;17.802;2023-02-14T12:30:56;17.91;45.73
74792;SHT30;63319;46.046;17.802;2023-02-14T12:34:01;18.05;43.59
74792;SHT30;63319;46.046;17.802;2023-02-14T12:43:47;17.73;45.21
74792;SHT30;63319;46.046;17.802;2023-02-14T12:59:43;17.81;43.79
74792;SHT30;63319;46.046;17.802;2023-02-14T13:06:29;17.80;45.32
74792;SHT30;63319;46.046;17.802;2023-02-14T13:17:29;18.66;46.57
74792;SHT30;63319;46.046;17.802;2023-02-14T13:20:53;19.03;45.53
74792;SHT30;63319;46.046;17.802;2023-02-14T13:27:27;19.51;44.41
74792;SHT30;63319;46.046;17.802;2023-02-14T13:30:34;19.63;44.00
74792;SHT30;63319;46.046;17.802;2023-02-14T13:33:43;19.76;43.48
74792;SHT30;63319;46.046;17.802;2023-02-14T13:36:49;19.90;50.42
74792;SHT30;63319;46.046;17.802;2023-02-14T13:39:59;19.86;45.28
74792;SHT30;63319;46.046;17.802;2023-02-14T13:43:03;19.83;44.04
74792;SHT30;63319;46.046;17.802;2023-02-14T13:46:06;19.87;43.65
74792;SHT30;63319;46.046;17.802;2023-02-14T13:55:43;20.09;46.02
74792;SHT30;63319;46.046;17.802;2023-02-14T13:58:57;20.17;46.66
74792;SHT30;63319;46.046;17.802;2023-02-14T14:06:01;20.31;47.39
74792;SHT30;63319;46.046;17.802;2023-02-14T14:09:51;20.37;47.07
74792;SHT30;63319;46.046;17.802;2023-02-14T14:22:23;20.52;48.19
74792;SHT30;63319;46.046;17.802;2023-02-14T14:25:36;20.54;47.30
74792;SHT30;63319;46.046;17.802;2023-02-14T14:28:44;20.57;47.59
74792;SHT30;63319;46.046;17.802;2023-02-14T14:31:48;20.58;48.02
74792;SHT30;63319;46.046;17.802;2023-02-14T14:35:24;20.58;47.99
74792;SHT30;63319;46.046;17.802;2023-02-14T14:38:25;20.64;48.14
74792;SHT30;63319;46.046;17.802;2023-02-14T14:41:28;20.64;47.94
74792;SHT30;63319;46.046;17.802;2023-02-14T14:44:36;20.67;47.89
74792;SHT30;63319;46.046;17.802;2023-02-14T14:47:46;20.65;47.45
74792;SHT30;63319;46.046;17.802;2023-02-14T14:50:50;20.67;47.77
74792;SHT30;63319;46.046;17.802;2023-02-14T14:53:59;20.67;47.50
74792;SHT30;63319;46.046;17.802;2023-02-14T14:57:03;20.68;47.49
74792;SHT30;63319;46.046;17.802;2023-02-14T15:03:26;20.72;47.42
74792;SHT30;63319;46.046;17.802;2023-02-14T15:06:29;20.77;47.01
74792;SHT30;63319;46.046;17.802;2023-02-14T15:09:37;20.75;47.04
74792;SHT30;63319;46.046;17.802;2023-02-14T15:12:41;20.77;46.99
74792;SHT30;63319;46.046;17.802;2023-02-14T15:16:03;20.78;47.08
74792;SHT30;63319;46.046;17.802;2023-02-14T15:19:14;20.77;46.94
74792;SHT30;63319;46.046;17.802;2023-02-14T15:22:20;20.77;46.76
74792;SHT30;63319;46.046;17.802;2023-02-14T15:25:31;20.79;46.26
74792;SHT30;63319;46.046;17.802;2023-02-14T15:28:34;20.77;46.46
74792;SHT30;63319;46.046;17.802;2023-02-14T15:31:39;20.78;45.96
74792;SHT30;63319;46.046;17.802;2023-02-14T15:34:42;20.75;46.10
74792;SHT30;63319;46.046;17.802;2023-02-14T15:37:46;20.75;46.26
74792;SHT30;63319;46.046;17.802;2023-02-14T15:40:51;20.77;46.33
74792;SHT30;63319;46.046;17.802;2023-02-14T15:43:56;20.81;46.16
74792;SHT30;63319;46.046;17.802;2023-02-14T15:47:02;20.78;45.93
74792;SHT30;63319;46.046;17.802;2023-02-14T15:50:21;20.79;45.87
74792;SHT30;63319;46.046;17.802;2023-02-14T15:53:36;20.78;45.64
74792;SHT30;63319;46.046;17.802;2023-02-14T15:56:43;20.81;45.51
74792;SHT30;63319;46.046;17.802;2023-02-14T15:59:48;20.79;45.59
74792;SHT30;63319;46.046;17.802;2023-02-14T16:03:01;20.79;45.34
74792;SHT30;63319;46.046;17.802;2023-02-14T16:06:15;20.77;45.43
74792;SHT30;63319;46.046;17.802;2023-02-14T16:09:26;20.79;45.36
74792;SHT30;63319;46.046;17.802;2023-02-14T16:12:31;20.78;45.48
74792;SHT30;63319;46.046;17.802;2023-02-14T16:15:38;20.79;45.27
74792;SHT30;63319;46.046;17.802;2023-02-14T16:18:52;20.78;45.19
74792;SHT30;63319;46.046;17.802;2023-02-14T16:21:56;20.78;45.18
74792;SHT30;63319;46.046;17.802;2023-02-14T16:25:00;20.75;45.23
74792;SHT30;63319;46.046;17.802;2023-02-14T16:28:03;20.75;44.88
74792;SHT30;63319;46.046;17.802;2023-02-14T16:31:11;20.77;45.24
74792;SHT30;63319;46.046;17.802;2023-02-14T16:34:17;20.77;45.05
74792;SHT30;63319;46.046;17.802;2023-02-14T16:37:27;20.78;44.81
74792;SHT30;63319;46.046;17.802;2023-02-14T16:40:33;20.78;44.78
74792;SHT30;63319;46.046;17.802;2023-02-14T16:43:37;20.75;44.86
74792;SHT30;63319;46.046;17.802;2023-02-14T16:46:42;20.77;44.74
74792;SHT30;63319;46.046;17.802;2023-02-14T16:49:48;20.77;44.73
74792;SHT30;63319;46.046;17.802;2023-02-14T16:52:54;20.74;44.83
74792;SHT30;63319;46.046;17.802;2023-02-14T16:56:02;20.75;44.65
74792;SHT30;63319;46.046;17.802;2023-02-14T16:59:07;20.75;44.60
74792;SHT30;63319;46.046;17.802;2023-02-14T17:02:11;20.74;44.73
74792;SHT30;63319;46.046;17.802;2023-02-14T17:05:20;20.74;44.39
74792;SHT30;63319;46.046;17.802;2023-02-14T17:08:25;20.74;44.74
74792;SHT30;63319;46.046;17.802;2023-02-14T17:11:34;20.71;44.36
74792;SHT30;63319;46.046;17.802;2023-02-14T17:14:40;20.72;44.48
74792;SHT30;63319;46.046;17.802;2023-02-14T17:17:47;20.72;44.28
74792;SHT30;63319;46.046;17.802;2023-02-14T17:20:53;20.72;44.33
74792;SHT30;63319;46.046;17.802;2023-02-14T17:24:01;20.71;44.44
74792;SHT30;63319;46.046;17.802;2023-02-14T17:27:06;20.71;43.87
74792;SHT30;63319;46.046;17.802;2023-02-14T17:30:12;20.72;44.34
74792;SHT30;63319;46.046;17.802;2023-02-14T17:33:18;20.72;43.94
74792;SHT30;63319;46.046;17.802;2023-02-14T17:36:23;20.71;44.18
74792;SHT30;63319;46.046;17.802;2023-02-14T17:39:28;20.69;44.22
74792;SHT30;63319;46.046;17.802;2023-02-14T17:42:33;20.72;44.01
74792;SHT30;63319;46.046;17.802;2023-02-14T17:45:39;20.71;44.27
74792;SHT30;63319;46.046;17.802;2023-02-14T17:48:44;20.71;44.11
74792;SHT30;63319;46.046;17.802;2023-02-14T17:51:54;20.71;44.01
74792;SHT30;63319;46.046;17.802;2023-02-14T17:55:08;20.68;44.02
74792;SHT30;63319;46.046;17.802;2023-02-14T17:58:13;20.68;43.88
74792;SHT30;63319;46.046;17.802;2023-02-14T18:01:23;20.68;43.95
74792;SHT30;63319;46.046;17.802;2023-02-14T18:04:31;20.67;44.00
74792;SHT30;63319;46.046;17.802;2023-02-14T18:07:40;20.67;43.94
74792;SHT30;63319;46.046;17.802;2023-02-14T18:10:46;20.64;43.85
74792;SHT30;63319;46.046;17.802;2023-02-14T18:13:55;20.65;43.68
74792;SHT30;63319;46.046;17.802;2023-02-14T18:17:00;20.65;43.61
74792;SHT30;63319;46.046;17.802;2023-02-14T18:20:05;20.65;43.70
74792;SHT30;63319;46.046;17.802;2023-02-14T18:23:09;20.63;43.64
74792;SHT30;63319;46.046;17.802;2023-02-14T18:26:15;20.64;43.65
74792;SHT30;63319;46.046;17.802;2023-02-14T18:29:20;20.60;43.74
74792;SHT30;63319;46.046;17.802;2023-02-14T18:32:31;20.61;43.67
74792;SHT30;63319;46.046;17.802;2023-02-14T18:35:38;20.60;43.75
74792;SHT30;63319;46.046;17.802;2023-02-14T18:38:47;20.60;43.24
74792;SHT30;63319;46.046;17.802;2023-02-14T18:41:53;20.60;43.49
74792;SHT30;63319;46.046;17.802;2023-02-14T18:45:03;20.60;43.63
74792;SHT30;63319;46.046;17.802;2023-02-14T18:48:07;20.57;43.66
74792;SHT30;63319;46.046;17.802;2023-02-14T18:51:15;20.57;43.63
74792;SHT30;63319;46.046;17.802;2023-02-14T18:54:20;20.57;43.23
74792;SHT30;63319;46.046;17.802;2023-02-14T18:57:25;20.55;43.58
74792;SHT30;63319;46.046;17.802;2023-02-14T19:00:29;20.54;43.30
74792;SHT30;63319;46.046;17.802;2023-02-14T19:03:36;20.51;43.19
74792;SHT30;63319;46.046;17.802;2023-02-14T19:06:41;20.55;43.57
74792;SHT30;63319;46.046;17.802;2023-02-14T19:09:46;20.50;43.53
74792;SHT30;63319;46.046;17.802;2023-02-14T19:12:51;20.52;43.58
74792;SHT30;63319;46.046;17.802;2023-02-14T19:15:57;20.51;43.45
74792;SHT30;63319;46.046;17.802;2023-02-14T19:19:05;20.51;43.59
74792;SHT30;63319;46.046;17.802;2023-02-14T19:22:10;20.51;43.53
74792;SHT30;63319;46.046;17.802;2023-02-14T19:25:14;20.52;43.36
74792;SHT30;63319;46.046;17.802;2023-02-14T19:28:20;20.50;43.44
74792;SHT30;63319;46.046;17.802;2023-02-14T19:31:26;20.48;43.39
74792;SHT30;63319;46.046;17.802;2023-02-14T19:34:32;20.48;43.41
74792;SHT30;63319;46.046;17.802;2023-02-14T19:37:42;20.47;43.01
74792;SHT30;63319;46.046;17.802;2023-02-14T19:40:49;20.47;43.34
74792;SHT30;63319;46.046;17.802;2023-02-14T19:43:59;20.45;43.08
74792;SHT30;63319;46.046;17.802;2023-02-14T19:47:03;20.41;43.15
74792;SHT30;63319;46.046;17.802;2023-02-14T19:50:29;20.45;43.44
74792;SHT30;63319;46.046;17.802;2023-02-14T19:53:34;20.44;43.27
74792;SHT30;63319;46.046;17.802;2023-02-14T19:56:43;20.43;43.37
74792;SHT30;63319;46.046;17.802;2023-02-14T19:59:48;20.41;43.44
74792;SHT30;63319;46.046;17.802;2023-02-14T20:02:53;20.43;43.37
74792;SHT30;63319;46.046;17.802;2023-02-14T20:05:59;20.41;43.12
74792;SHT30;63319;46.046;17.802;2023-02-14T20:09:05;20.40;43.28
74792;SHT30;63319;46.046;17.802;2023-02-14T20:12:10;20.39;43.15
74792;SHT30;63319;46.046;17.802;2023-02-14T20:15:16;20.39;42.97
74792;SHT30;63319;46.046;17.802;2023-02-14T20:18:21;20.33;43.20
74792;SHT30;63319;46.046;17.802;2023-02-14T20:21:26;20.36;43.33
74792;SHT30;63319;46.046;17.802;2023-02-14T20:24:34;20.36;43.32
74792;SHT30;63319;46.046;17.802;2023-02-14T20:27:39;20.33;42.89
74792;SHT30;63319;46.046;17.802;2023-02-14T20:30:53;20.33;43.06
74792;SHT30;63319;46.046;17.802;2023-02-14T20:33:59;20.30;43.15
74792;SHT30;63319;46.046;17.802;2023-02-14T20:37:09;20.29;43.15
74792;SHT30;63319;46.046;17.802;2023-02-14T20:40:25;20.29;43.34
74792;SHT30;63319;46.046;17.802;2023-02-14T20:43:31;20.26;42.87
74792;SHT30;63319;46.046;17.802;2023-02-14T20:46:36;20.23;43.38
74792;SHT30;63319;46.046;17.802;2023-02-14T20:49:43;20.26;42.92
74792;SHT30;63319;46.046;17.802;2023-02-14T20:52:49;20.24;42.79
74792;SHT30;63319;46.046;17.802;2023-02-14T20:55:57;20.21;42.88
74792;SHT30;63319;46.046;17.802;2023-02-14T20:59:08;20.20;42.89
74792;SHT30;63319;46.046;17.802;2023-02-14T21:02:15;20.19;42.74
74792;SHT30;63319;46.046;17.802;2023-02-14T21:05:20;20.16;43.19
74792;SHT30;63319;46.046;17.802;2023-02-14T21:08:26;20.14;43.26
74792;SHT30;63319;46.046;17.802;2023-02-14T21:11:31;20.17;42.95
74792;SHT30;63319;46.046;17.802;2023-02-14T21:14:36;20.12;43.42
74792;SHT30;63319;46.046;17.802;2023-02-14T21:17:42;20.12;43.40
74792;SHT30;63319;46.046;17.802;2023-02-14T21:20:47;20.13;42.87
74792;SHT30;63319;46.046;17.802;2023-02-14T21:23:58;20.13;42.95